createdAt,value
2023-07-27T00:01:12.174Z,12.64
2023-07-27T00:03:39.391Z,12.46
2023-07-27T00:06:06.617Z,12.49
2023-07-27T00:08:33.798Z,12.61
2023-07-27T00:11:00.912Z,12.79
2023-07-27T00:13:28.140Z,12.71
2023-07-27T00:15:55.309Z,12.57
2023-07-27T00:18:22.468Z,12.58
2023-07-27T00:20:49.661Z,12.41
2023-07-27T00:23:16.829Z,12.25
2023-07-27T00:25:44.058Z,12.41
2023-07-27T00:28:11.267Z,12.59
2023-07-27T00:30:38.565Z,12.51
2023-07-27T00:33:05.983Z,12.67
2023-07-27T00:35:33.185Z,12.56
2023-07-27T00:38:00.923Z,12.38
2023-07-27T00:40:28.138Z,12.48
2023-07-27T00:42:55.298Z,12.58
2023-07-27T00:45:22.872Z,12.41
2023-07-27T00:47:50.278Z,12.45
2023-07-27T00:50:17.560Z,12.55
2023-07-27T00:52:44.896Z,12.35
2023-07-27T00:55:12.468Z,12.64
2023-07-27T00:57:39.742Z,12.62
2023-07-27T01:00:09.217Z,12.49
2023-07-27T01:02:36.406Z,12.48
2023-07-27T01:05:03.682Z,12.50
2023-07-27T01:07:31.028Z,12.50
2023-07-27T01:10:01.005Z,12.73
2023-07-27T01:12:50.433Z,12.71
2023-07-27T01:15:23.260Z,12.63
2023-07-27T01:18:16.476Z,12.28
2023-07-27T01:20:51.179Z,12.18
2023-07-27T01:23:42.911Z,12.30
2023-07-27T01:26:56.938Z,12.41
2023-07-27T01:29:53.238Z,12.55
2023-07-27T01:32:22.308Z,12.63
2023-07-27T01:34:54.177Z,12.56
2023-07-27T01:37:23.275Z,12.57
2023-07-27T01:39:53.040Z,12.48
2023-07-27T01:42:23.465Z,12.35
2023-07-27T01:44:52.521Z,12.73
2023-07-27T01:47:21.240Z,12.59
2023-07-27T01:49:50.268Z,12.75
2023-07-27T01:52:20.047Z,12.65
2023-07-27T01:54:49.256Z,12.66
2023-07-27T01:57:18.276Z,12.86
2023-07-27T01:59:46.179Z,12.71
2023-07-27T02:02:15.105Z,12.90
2023-07-27T02:04:43.065Z,13.04
2023-07-27T02:07:10.264Z,12.93
2023-07-27T02:09:37.435Z,12.94
2023-07-27T02:12:20.045Z,12.89
2023-07-27T02:15:05.743Z,13.02
2023-07-27T02:17:40.976Z,12.88
2023-07-27T02:20:11.923Z,12.90
2023-07-27T02:22:41.501Z,13.01
2023-07-27T02:25:09.500Z,12.96
2023-07-27T02:27:37.461Z,12.79
2023-07-27T02:30:05.290Z,13.11
2023-07-27T02:32:33.521Z,12.91
2023-07-27T02:35:00.804Z,12.73
2023-07-27T02:37:28.340Z,12.59
2023-07-27T02:39:56.200Z,12.70
2023-07-27T02:42:23.395Z,12.81
2023-07-27T02:44:50.607Z,12.85
2023-07-27T02:47:18.713Z,13.08
2023-07-27T02:49:46.889Z,13.03
2023-07-27T02:52:14.124Z,13.02
2023-07-27T02:54:41.921Z,13.02
2023-07-27T02:57:10.704Z,12.94
2023-07-27T02:59:45.740Z,12.73
2023-07-27T03:02:13.212Z,12.89
2023-07-27T03:04:42.242Z,12.98
2023-07-27T03:07:11.169Z,12.87
2023-07-27T03:09:38.931Z,12.67
2023-07-27T03:12:07.861Z,12.66
2023-07-27T03:14:35.081Z,12.54
2023-07-27T03:17:02.281Z,12.61
2023-07-27T03:19:29.489Z,12.46
2023-07-27T03:21:56.774Z,12.27
2023-07-27T03:24:23.943Z,12.50
2023-07-27T03:26:51.245Z,12.46
2023-07-27T03:29:18.456Z,12.50
2023-07-27T03:31:45.759Z,12.41
2023-07-27T03:34:12.916Z,12.77
2023-07-27T03:36:40.192Z,12.29
2023-07-27T03:39:07.345Z,12.26
2023-07-27T03:41:34.698Z,12.42
2023-07-27T03:44:01.938Z,12.35
2023-07-27T03:46:29.589Z,12.20
2023-07-27T03:48:56.809Z,12.34
2023-07-27T03:51:23.976Z,12.51
2023-07-27T03:53:52.545Z,12.13
2023-07-27T03:56:33.705Z,12.19
2023-07-27T03:59:01.209Z,12.06
2023-07-27T04:01:28.364Z,12.52
2023-07-27T04:03:55.577Z,12.26
2023-07-27T04:06:24.165Z,12.04
2023-07-27T04:08:51.319Z,12.13
2023-07-27T04:11:18.611Z,11.93
2023-07-27T04:13:45.779Z,12.03
2023-07-27T04:16:13.033Z,12.12
2023-07-27T04:18:40.242Z,12.20
2023-07-27T04:21:07.452Z,12.35
2023-07-27T04:23:34.675Z,12.42
2023-07-27T04:26:03.842Z,12.41
2023-07-27T04:28:31.006Z,12.34
2023-07-27T04:30:58.202Z,12.45
2023-07-27T04:33:25.461Z,12.26
2023-07-27T04:35:52.620Z,12.50
2023-07-27T04:38:19.768Z,12.46
2023-07-27T04:40:46.960Z,12.41
2023-07-27T04:43:14.340Z,12.52
2023-07-27T04:45:41.601Z,12.58
2023-07-27T04:48:09.058Z,12.59
2023-07-27T04:50:36.722Z,12.68
2023-07-27T04:53:03.926Z,12.70
2023-07-27T04:55:31.099Z,12.78
2023-07-27T04:58:00.773Z,12.70
2023-07-27T05:00:28.037Z,12.84
2023-07-27T05:02:55.474Z,12.82
2023-07-27T05:05:22.744Z,13.17
2023-07-27T05:07:49.883Z,13.21
2023-07-27T05:10:17.069Z,12.99
2023-07-27T05:12:44.230Z,12.97
2023-07-27T05:15:11.428Z,12.90
2023-07-27T05:17:38.632Z,12.94
2023-07-27T05:20:06.215Z,12.82
2023-07-27T05:22:33.490Z,13.04
2023-07-27T05:25:00.705Z,13.04
2023-07-27T05:27:27.877Z,13.10
2023-07-27T05:29:55.025Z,13.09
2023-07-27T05:32:22.163Z,13.10
2023-07-27T05:34:49.405Z,13.32
2023-07-27T05:37:16.633Z,13.37
2023-07-27T05:39:43.792Z,13.24
2023-07-27T05:42:10.993Z,13.34
2023-07-27T05:44:38.120Z,13.44
2023-07-27T05:47:08.578Z,13.48
2023-07-27T05:49:35.699Z,13.35
2023-07-27T05:52:02.904Z,13.53
2023-07-27T05:54:30.035Z,13.73
2023-07-27T05:56:57.174Z,13.79
2023-07-27T05:59:24.300Z,13.80
2023-07-27T06:01:51.559Z,13.78
2023-07-27T06:04:28.505Z,13.86
2023-07-27T06:06:56.110Z,14.04
2023-07-27T06:09:23.224Z,14.15
2023-07-27T06:11:50.441Z,14.13
2023-07-27T06:14:17.600Z,14.31
2023-07-27T06:16:44.732Z,14.34
2023-07-27T06:19:11.865Z,14.31
2023-07-27T06:21:39.531Z,14.40
2023-07-27T06:24:06.764Z,14.31
2023-07-27T06:26:34.169Z,14.31
2023-07-27T06:29:01.648Z,14.54
2023-07-27T06:31:28.842Z,14.42
2023-07-27T06:33:56.021Z,14.58
2023-07-27T06:36:23.183Z,14.69
2023-07-27T06:38:50.324Z,14.59
2023-07-27T06:41:18.260Z,14.54
2023-07-27T06:43:45.443Z,14.62
2023-07-27T06:46:12.599Z,14.67
2023-07-27T06:48:39.783Z,14.68
2023-07-27T06:51:06.984Z,14.55
2023-07-27T06:53:34.182Z,14.65
2023-07-27T06:56:01.313Z,14.74
2023-07-27T06:58:28.568Z,14.84
2023-07-27T07:00:56.039Z,14.82
2023-07-27T07:03:23.402Z,14.74
2023-07-27T07:05:50.591Z,14.64
2023-07-27T07:08:17.772Z,14.59
2023-07-27T07:10:44.919Z,14.58
2023-07-27T07:13:12.025Z,14.54
2023-07-27T07:15:39.237Z,14.60
2023-07-27T07:18:06.555Z,14.66
2023-07-27T07:20:33.810Z,14.51
2023-07-27T07:23:00.948Z,14.65
2023-07-27T07:25:28.144Z,14.65
2023-07-27T07:27:55.287Z,14.68
2023-07-27T07:30:23.206Z,14.68
2023-07-27T07:32:51.280Z,14.56
2023-07-27T07:35:19.359Z,14.47
2023-07-27T07:37:48.679Z,14.54
2023-07-27T07:40:18.656Z,14.70
2023-07-27T07:42:47.347Z,14.82
2023-07-27T07:45:14.562Z,14.90
2023-07-27T07:47:41.782Z,14.92
2023-07-27T07:50:09.920Z,14.80
2023-07-27T07:52:37.140Z,15.01
2023-07-27T07:55:04.680Z,14.98
2023-07-27T07:57:32.272Z,15.04
2023-07-27T07:59:59.590Z,15.31
2023-07-27T08:02:27.674Z,15.32
2023-07-27T08:04:54.981Z,15.35
2023-07-27T08:07:22.139Z,15.38
2023-07-27T08:09:49.325Z,15.39
2023-07-27T08:12:17.659Z,15.46
2023-07-27T08:14:44.791Z,15.40
2023-07-27T08:17:11.997Z,15.52
2023-07-27T08:19:39.201Z,15.65
2023-07-27T08:22:06.620Z,15.57
2023-07-27T08:24:34.019Z,15.55
2023-07-27T08:27:05.332Z,15.62
2023-07-27T08:29:34.223Z,15.66
2023-07-27T08:32:03.518Z,15.81
2023-07-27T08:34:30.643Z,15.96
2023-07-27T08:36:57.782Z,16.06
2023-07-27T08:39:25.023Z,16.16
2023-07-27T08:41:53.634Z,16.00
2023-07-27T08:44:20.994Z,16.23
2023-07-27T08:46:50.011Z,16.38
2023-07-27T08:49:18.577Z,16.49
2023-07-27T08:51:45.937Z,16.60
2023-07-27T08:54:13.145Z,16.71
2023-07-27T08:56:40.351Z,16.72
2023-07-27T08:59:07.541Z,16.68
2023-07-27T09:01:34.728Z,16.62
2023-07-27T09:04:01.943Z,16.74
2023-07-27T09:06:39.246Z,16.83
2023-07-27T09:09:25.791Z,16.87
2023-07-27T09:11:53.563Z,16.92
2023-07-27T09:14:21.166Z,17.06
2023-07-27T09:16:50.150Z,17.05
2023-07-27T09:19:19.072Z,17.16
2023-07-27T09:21:50.080Z,17.32
2023-07-27T09:24:17.505Z,17.25
2023-07-27T09:26:51.134Z,17.09
2023-07-27T09:29:20.081Z,17.39
2023-07-27T09:31:48.878Z,17.24
2023-07-27T09:34:17.638Z,17.35
2023-07-27T09:36:44.818Z,17.39
2023-07-27T09:39:12.651Z,17.38
2023-07-27T09:41:44.505Z,17.23
2023-07-27T09:44:18.694Z,17.29
2023-07-27T09:46:47.065Z,17.31
2023-07-27T09:49:15.902Z,17.20
2023-07-27T09:51:43.835Z,17.19
2023-07-27T09:54:12.736Z,17.25
2023-07-27T09:56:40.209Z,17.34
2023-07-27T09:59:08.302Z,17.23
2023-07-27T10:01:35.746Z,17.23
2023-07-27T10:04:04.034Z,17.36
2023-07-27T10:06:32.433Z,17.32
2023-07-27T10:08:59.829Z,17.35
2023-07-27T10:12:00.638Z,17.39
2023-07-27T10:14:28.560Z,17.44
2023-07-27T10:17:09.724Z,17.43
2023-07-27T10:19:47.173Z,17.39
2023-07-27T10:22:16.747Z,17.37
2023-07-27T10:24:55.269Z,17.43
2023-07-27T10:27:25.507Z,17.49
2023-07-27T10:30:09.980Z,17.40
2023-07-27T10:32:38.401Z,17.31
2023-07-27T10:35:09.287Z,17.33
2023-07-27T10:37:55.466Z,17.41
2023-07-27T10:40:26.987Z,17.40
2023-07-27T10:43:02.490Z,17.33
2023-07-27T10:45:29.646Z,17.41
2023-07-27T10:48:00.856Z,17.61
2023-07-27T10:50:28.061Z,17.58
2023-07-27T10:52:55.323Z,17.66
2023-07-27T10:55:23.225Z,17.61
2023-07-27T10:57:55.803Z,17.75
2023-07-27T11:00:35.637Z,17.82
2023-07-27T11:03:03.852Z,17.76
2023-07-27T11:05:31.289Z,17.67
2023-07-27T11:08:04.618Z,17.84
2023-07-27T11:10:32.138Z,18.02
2023-07-27T11:13:00.812Z,17.97
2023-07-27T11:15:30.398Z,18.03
2023-07-27T11:18:00.984Z,17.99
2023-07-27T11:20:30.291Z,18.18
2023-07-27T11:23:00.824Z,18.22
2023-07-27T11:25:33.501Z,18.11
2023-07-27T11:28:04.515Z,18.19
2023-07-27T11:30:36.291Z,18.20
2023-07-27T11:33:05.612Z,18.32
2023-07-27T11:35:33.095Z,18.42
2023-07-27T11:38:00.863Z,18.48
2023-07-27T11:40:28.206Z,18.48
2023-07-27T11:42:56.535Z,18.63
2023-07-27T11:45:25.743Z,18.67
2023-07-27T11:47:53.899Z,18.73
2023-07-27T11:50:21.895Z,18.70
2023-07-27T11:53:00.820Z,18.76
2023-07-27T11:55:32.964Z,18.79
2023-07-27T11:58:01.232Z,18.86
2023-07-27T12:00:28.351Z,18.76
2023-07-27T12:03:00.026Z,18.74
2023-07-27T12:05:35.466Z,18.87
2023-07-27T12:10:32.706Z,18.90
2023-07-27T12:18:50.074Z,18.93
2023-07-27T12:23:47.963Z,19.00
2023-07-27T12:28:45.233Z,18.99
2023-07-27T12:33:42.542Z,19.06
2023-07-27T12:36:10.771Z,19.13
2023-07-27T12:41:08.215Z,19.18
2023-07-27T12:43:35.366Z,19.21
2023-07-27T12:46:03.129Z,19.28
2023-07-27T12:48:32.418Z,19.36
2023-07-27T12:51:00.768Z,19.24
2023-07-27T12:53:27.859Z,19.49
2023-07-27T12:55:55.039Z,19.47
2023-07-27T12:58:22.223Z,19.69
2023-07-27T13:00:49.352Z,19.72
2023-07-27T13:03:16.641Z,19.78
2023-07-27T13:05:43.887Z,19.80
2023-07-27T13:08:11.020Z,19.81
2023-07-27T13:10:38.178Z,19.94
2023-07-27T13:13:05.421Z,20.01
2023-07-27T13:15:32.555Z,19.97
2023-07-27T13:18:04.483Z,19.93
2023-07-27T13:20:33.316Z,19.82
2023-07-27T13:23:01.324Z,19.86
2023-07-27T13:25:28.577Z,20.05
2023-07-27T13:27:55.748Z,20.15
2023-07-27T13:30:23.616Z,20.09
2023-07-27T13:32:50.966Z,20.15
2023-07-27T13:35:20.482Z,20.16
2023-07-27T13:37:47.707Z,20.19
2023-07-27T13:40:15.637Z,20.29
2023-07-27T13:42:43.424Z,20.19
2023-07-27T13:45:10.866Z,20.19
2023-07-27T13:47:41.041Z,20.24
2023-07-27T13:50:14.492Z,20.15
2023-07-27T13:52:41.736Z,20.13
2023-07-27T13:55:09.350Z,19.99
2023-07-27T13:57:37.668Z,20.05
2023-07-27T14:00:13.614Z,20.01
2023-07-27T14:02:43.112Z,19.84
2023-07-27T14:05:11.625Z,19.80
2023-07-27T14:07:39.100Z,19.72
2023-07-27T14:10:07.500Z,19.74
2023-07-27T14:12:35.444Z,19.81
2023-07-27T14:15:03.461Z,19.94
2023-07-27T14:17:32.021Z,20.02
2023-07-27T14:19:59.190Z,20.08
2023-07-27T14:22:26.324Z,19.94
2023-07-27T14:24:53.671Z,19.86
2023-07-27T14:30:07.215Z,19.84
2023-07-27T14:32:36.618Z,19.87
2023-07-27T14:35:04.369Z,19.86
2023-07-27T14:37:31.646Z,19.87
2023-07-27T14:39:58.804Z,19.87
2023-07-27T14:42:26.869Z,19.89
2023-07-27T14:44:54.200Z,19.87
2023-07-27T14:47:21.393Z,19.88
2023-07-27T14:52:21.471Z,19.99
2023-07-27T14:54:48.607Z,19.87
2023-07-27T14:57:15.747Z,19.70
2023-07-27T14:59:56.002Z,19.57
2023-07-27T15:04:55.048Z,19.58
2023-07-27T15:07:22.480Z,19.66
2023-07-27T15:09:50.933Z,19.67
2023-07-27T15:12:18.132Z,19.63
2023-07-27T15:14:45.241Z,19.64
2023-07-27T15:17:12.524Z,19.63
2023-07-27T15:19:39.729Z,19.75
2023-07-27T15:22:06.971Z,19.76
2023-07-27T15:24:34.209Z,19.94
2023-07-27T15:27:03.936Z,20.00
2023-07-27T15:29:31.354Z,20.08
2023-07-27T15:31:58.591Z,19.99
2023-07-27T15:34:25.738Z,20.10
2023-07-27T15:36:52.913Z,20.08
2023-07-27T15:39:20.052Z,20.03
2023-07-27T15:41:47.174Z,20.03
2023-07-27T15:44:14.294Z,20.07
2023-07-27T15:46:42.581Z,20.03
2023-07-27T15:49:09.736Z,20.00
2023-07-27T15:51:36.849Z,19.99
2023-07-27T15:54:04.114Z,19.93
2023-07-27T15:56:31.442Z,19.93
2023-07-27T15:58:58.659Z,19.87
2023-07-27T16:01:25.928Z,19.77
2023-07-27T16:03:53.092Z,19.69
2023-07-27T16:06:20.255Z,19.44
2023-07-27T16:08:47.445Z,19.40
2023-07-27T16:11:14.547Z,19.48
2023-07-27T16:13:41.717Z,19.31
2023-07-27T16:16:08.865Z,19.15
2023-07-27T16:18:36.251Z,19.17
2023-07-27T16:21:03.717Z,19.01
2023-07-27T16:23:34.438Z,19.12
2023-07-27T16:26:05.906Z,18.98
2023-07-27T16:28:33.432Z,18.88
2023-07-27T16:31:00.622Z,18.58
2023-07-27T16:33:27.919Z,18.52
2023-07-27T16:35:55.046Z,18.49
2023-07-27T16:38:22.199Z,18.51
2023-07-27T16:40:54.161Z,18.62
2023-07-27T16:43:21.324Z,18.52
2023-07-27T16:45:48.669Z,18.45
2023-07-27T16:48:17.050Z,18.23
2023-07-27T16:50:45.787Z,18.00
2023-07-27T16:53:13.977Z,18.17
2023-07-27T16:55:41.978Z,18.17
2023-07-27T16:58:09.176Z,17.78
2023-07-27T17:00:36.486Z,17.97
2023-07-27T17:03:04.869Z,18.03
2023-07-27T17:05:41.493Z,17.91
2023-07-27T17:08:11.805Z,17.74
2023-07-27T17:10:39.060Z,17.71
2023-07-27T17:13:06.200Z,17.73
2023-07-27T17:15:33.450Z,17.65
2023-07-27T17:18:01.010Z,17.59
2023-07-27T17:20:28.256Z,17.68
2023-07-27T17:22:55.788Z,17.76
2023-07-27T17:25:22.964Z,17.74
2023-07-27T17:27:50.181Z,17.44
2023-07-27T17:30:20.603Z,17.45
2023-07-27T17:32:49.495Z,17.48
2023-07-27T17:35:17.176Z,17.47
2023-07-27T17:37:45.331Z,17.57
2023-07-27T17:40:13.215Z,17.75
2023-07-27T17:42:40.739Z,17.72
2023-07-27T17:45:09.183Z,17.76
2023-07-27T17:47:36.881Z,17.66
2023-07-27T17:50:04.553Z,17.64
2023-07-27T17:52:32.400Z,17.78
2023-07-27T17:54:59.578Z,17.71
2023-07-27T17:57:27.301Z,17.59
2023-07-27T17:59:54.463Z,17.65
2023-07-27T18:02:21.906Z,17.75
2023-07-27T18:04:51.492Z,17.71
2023-07-27T18:07:18.659Z,17.63
2023-07-27T18:09:48.191Z,17.73
2023-07-27T18:12:15.548Z,17.76
2023-07-27T18:14:42.686Z,17.62
2023-07-27T18:17:09.925Z,17.48
2023-07-27T18:19:37.161Z,17.64
2023-07-27T18:22:05.244Z,17.42
2023-07-27T18:24:34.344Z,17.40
2023-07-27T18:27:01.983Z,17.40
2023-07-27T18:29:29.139Z,17.41
2023-07-27T18:31:56.337Z,17.23
2023-07-27T18:34:23.590Z,17.22
2023-07-27T18:36:50.818Z,17.09
2023-07-27T18:39:17.979Z,17.13
2023-07-27T18:41:45.174Z,16.99
2023-07-27T18:44:12.324Z,16.88
2023-07-27T18:46:39.503Z,16.86
2023-07-27T18:49:06.633Z,16.86
2023-07-27T18:51:34.074Z,16.93
2023-07-27T18:54:01.317Z,17.08
2023-07-27T18:56:28.511Z,16.95
2023-07-27T18:58:55.691Z,16.79
2023-07-27T19:01:25.581Z,16.69
2023-07-27T19:03:52.772Z,16.55
2023-07-27T19:06:19.970Z,16.71
2023-07-27T19:08:47.153Z,16.59
2023-07-27T19:11:14.457Z,16.62
2023-07-27T19:13:41.642Z,16.59
2023-07-27T19:16:09.939Z,16.96
2023-07-27T19:18:37.714Z,16.99
2023-07-27T19:21:08.187Z,16.91
2023-07-27T19:23:36.599Z,16.66
2023-07-27T19:26:03.765Z,16.63
2023-07-27T19:28:31.137Z,16.67
2023-07-27T19:30:58.305Z,16.73
2023-07-27T19:33:25.489Z,16.64
2023-07-27T19:35:52.628Z,16.62
2023-07-27T19:38:19.794Z,16.74
2023-07-27T19:40:47.006Z,16.70
2023-07-27T19:43:14.362Z,16.78
2023-07-27T19:45:41.537Z,16.87
2023-07-27T19:48:08.813Z,16.89
2023-07-27T19:50:36.021Z,16.70
2023-07-27T19:53:03.189Z,16.57
2023-07-27T19:55:30.323Z,16.61
2023-07-27T19:57:57.461Z,16.60
2023-07-27T20:00:28.013Z,16.59
2023-07-27T20:02:55.233Z,16.51
2023-07-27T20:05:22.375Z,16.57
2023-07-27T20:07:49.687Z,16.60
2023-07-27T20:10:17.609Z,16.08
2023-07-27T20:12:45.923Z,16.19
2023-07-27T20:15:13.211Z,16.07
2023-07-27T20:17:41.033Z,16.29
2023-07-27T20:20:08.747Z,16.41
2023-07-27T20:22:36.283Z,16.34
2023-07-27T20:25:03.436Z,16.34
2023-07-27T20:27:30.805Z,16.45
2023-07-27T20:29:57.954Z,16.51
2023-07-27T20:32:26.587Z,16.48
2023-07-27T20:34:55.719Z,16.53
2023-07-27T20:37:22.840Z,16.43
2023-07-27T20:39:51.158Z,16.26
2023-07-27T20:42:18.445Z,16.17
2023-07-27T20:44:45.585Z,16.32
2023-07-27T20:47:12.778Z,16.47
2023-07-27T20:49:40.027Z,16.53
2023-07-27T20:52:07.627Z,16.39
2023-07-27T20:54:34.799Z,16.65
2023-07-27T20:57:01.924Z,16.62
2023-07-27T20:59:29.183Z,16.35
2023-07-27T21:01:56.344Z,16.35
2023-07-27T21:04:24.377Z,16.52
2023-07-27T21:06:51.601Z,16.48
2023-07-27T21:09:18.772Z,16.46
2023-07-27T21:11:45.964Z,16.26
2023-07-27T21:14:13.109Z,16.32
2023-07-27T21:16:40.266Z,16.43
2023-07-27T21:19:07.492Z,16.22
2023-07-27T21:21:34.652Z,16.59
2023-07-27T21:24:01.904Z,16.42
2023-07-27T21:26:29.088Z,16.22
2023-07-27T21:28:56.291Z,16.27
2023-07-27T21:31:23.703Z,16.31
2023-07-27T21:33:50.851Z,16.51
2023-07-27T21:36:18.085Z,16.55
2023-07-27T21:38:45.217Z,16.58
2023-07-27T21:41:12.660Z,16.73
2023-07-27T21:43:40.292Z,16.63
2023-07-27T21:46:08.583Z,16.57
2023-07-27T21:48:35.752Z,16.62
2023-07-27T21:51:03.052Z,16.76
2023-07-27T21:53:30.444Z,16.49
2023-07-27T21:55:57.590Z,16.59
2023-07-27T21:58:24.727Z,16.46
2023-07-27T22:00:51.924Z,16.52
2023-07-27T22:03:19.171Z,16.38
2023-07-27T22:05:47.423Z,16.30
2023-07-27T22:08:14.600Z,16.30
2023-07-27T22:10:41.917Z,16.06
2023-07-27T22:13:09.103Z,16.29
2023-07-27T22:15:36.295Z,16.20
2023-07-27T22:18:03.501Z,16.19
2023-07-27T22:20:30.680Z,16.43
2023-07-27T22:22:59.553Z,16.45
2023-07-27T22:25:26.989Z,16.57
2023-07-27T22:27:54.205Z,16.38
2023-07-27T22:30:21.491Z,16.31
2023-07-27T22:32:48.680Z,16.37
2023-07-27T22:35:18.544Z,16.30
2023-07-27T22:37:45.818Z,16.28
2023-07-27T22:40:12.948Z,16.36
2023-07-27T22:42:40.142Z,16.25
2023-07-27T22:45:07.821Z,16.34
2023-07-27T22:47:35.027Z,16.26
2023-07-27T22:50:02.186Z,16.16
2023-07-27T22:52:29.385Z,16.22
2023-07-27T22:54:56.590Z,16.48
2023-07-27T22:57:23.775Z,16.66
2023-07-27T22:59:54.575Z,16.62
2023-07-27T23:02:21.982Z,16.51
2023-07-27T23:04:50.581Z,16.43
2023-07-27T23:07:17.823Z,16.31
2023-07-27T23:09:44.961Z,16.27
2023-07-27T23:12:12.111Z,16.12
2023-07-27T23:14:39.367Z,16.28
2023-07-27T23:17:06.534Z,16.05
2023-07-27T23:19:33.826Z,16.14
2023-07-27T23:22:01.019Z,16.28
2023-07-27T23:24:28.164Z,16.25
2023-07-27T23:26:55.291Z,16.09
2023-07-27T23:29:23.007Z,16.08
2023-07-27T23:31:50.217Z,16.23
2023-07-27T23:34:17.429Z,16.09
2023-07-27T23:36:45.639Z,16.07
2023-07-27T23:39:14.466Z,16.32
2023-07-27T23:41:41.602Z,16.00
2023-07-27T23:44:08.768Z,16.16
2023-07-27T23:46:36.062Z,16.24
2023-07-27T23:49:03.497Z,16.33
2023-07-27T23:51:30.685Z,16.01
2023-07-27T23:53:57.906Z,16.08
2023-07-27T23:56:25.086Z,15.91
2023-07-27T23:58:52.342Z,16.14
